Jetmore, KS

10:47 AM CDT on May 23, 2015 (GMT -0500)
Dodge City Regional | | Change Station
CLOSE
Current Station
Airport
Location: Dodge City,
Elevation: 2592 ft
Nearby Weather Stations

Elev 2592 ft 37.76 °N, 99.97 °W | Updated 8 minutes ago

Rain
Rain
54 °F
Feels Like 54 °F
N
5
Wind Variable Wind from West

Today
High -- | Low -- °F
--% Chance of Precip.
Yesterday
High -- | Low -- °F
Precip. -- in
6:23 AM 8:49 PM
Waxing Crescent, 31% visible
Pressure 30.15 in
Visibility 3.0 miles
Clouds Few 500 ft
Mostly Cloudy 4700 ft
Overcast 7500 ft
Dew Point 52 °F
Humidity 93%
Rainfall 0.03 in
Snow Depth Not available.
UV 2 out of 12
Pollen 6.80 out of 12
Air Quality Not available.
Flu Activity No Activity
SPECI KDDC 231539Z AUTO 28004KT 3SM RA BR FEW005 BKN047 OVC075 12/11 A3015 RMK AO2 P0023 T01220111

More Conditions Fewer Conditions

Pressure 30.15 in
Visibility 3.0 miles
Clouds Few 500 ft
Mostly Cloudy 4700 ft
Overcast 7500 ft
Dew Point 52 °F
Humidity 93%
Rainfall 0.03 in
Snow Depth Not available.
UV 2 out of 12
Pollen 6.80 out of 12
Air Quality Not available.
Flu Activity No Activity
SPECI KDDC 231539Z AUTO 28004KT 3SM RA BR FEW005 BKN047 OVC075 12/11 A3015 RMK AO2 P0023 T01220111

More Conditions Fewer Conditions

10-Day Weather Forecast

Almanac

Astronomy

May. 23, 2015 Rise Set
Actual Time
Civil Twilight
Nautical Twilight
Astronomical Twilight
Moon
Length of Visible Light
Length of Day
Tomorrow will be .
, % of the Moon is Illuminated

Today's Extremes

State Highs State Lows

Community

WunderPhotos

Upload Photos

1,823,504 photos uploaded!

WunderBlogs® & News

Nearby

Air Quality

  Air Quality AQ Index Pollutant
Not available.

Snow Depth

Station Depth Elevation

Earthquake Activity

City Distance Mag. Time & Date
Minimum magnitude displayed is 2.5.

Coastal Water Temperatures

Place Temperature

Stations

Nearby Weather Stations

Station Location Temp. Windchill Dew Point Humidity Wind Precip. Elev Updated Type